Time;durP1;ratioP1;P1;durP2;ratioP2;P2;SDS_P1;SDS_P2;PMS_P1;PMS_P2;Temp;Humidity;BMP_temperature;BMP_pressure;BME280_temperature;BME280_humidity;BME280_pressure;Samples;Min_cycle;Max_cycle;Signal;HPM_P1;HPM_P2
2022/06/22 00:01:40;;;;;;;1.60;1.00;;;;;;;18.87;42.91;99540.58;117351;1188;21878;-54
2022/06/22 00:04:15;;;;;;;2.90;1.10;;;;;;;18.86;42.84;99543.13;117402;1186;22091;-53
2022/06/22 00:06:45;;;;;;;3.20;1.10;;;;;;;18.86;42.78;99534.98;117442;1186;22985;-54
2022/06/22 00:09:32;;;;;;;4.10;1.00;;;;;;;18.96;42.62;99533.83;117456;1185;22967;-55
2022/06/22 00:11:59;;;;;;;2.40;1.10;;;;;;;18.90;42.71;99533.15;117372;1185;23471;-54
2022/06/22 00:14:29;;;;;;;4.80;1.30;;;;;;;18.84;42.38;99529.40;117379;1182;23538;-55
2022/06/22 00:16:56;;;;;;;3.40;0.90;;;;;;;18.76;42.23;99527.73;117348;1182;21877;-55
2022/06/22 00:19:30;;;;;;;3.00;0.90;;;;;;;18.72;41.84;99529.23;117459;1185;21986;-55
2022/06/22 00:21:57;;;;;;;1.20;0.80;;;;;;;18.71;41.45;99528.77;117332;1182;22923;-54
2022/06/22 00:24:24;;;;;;;2.40;0.60;;;;;;;18.73;40.63;99526.52;117345;1185;22813;-54
2022/06/22 00:26:55;;;;;;;1.20;0.70;;;;;;;18.82;40.63;99533.97;117379;1182;22921;-54
2022/06/22 00:29:33;;;;;;;3.40;0.90;;;;;;;18.87;40.47;99532.41;117431;1183;22975;-51
2022/06/22 00:32:02;;;;;;;2.00;0.90;;;;;;;18.91;40.35;99531.65;117440;1182;23540;-51
2022/06/22 00:34:33;;;;;;;1.50;0.60;;;;;;;18.93;40.43;99531.19;117420;1183;22996;-51
2022/06/22 00:37:12;;;;;;;2.20;0.80;;;;;;;18.97;40.77;99526.52;117418;1186;22906;-54
2022/06/22 00:39:52;;;;;;;1.00;0.80;;;;;;;19.02;40.66;99525.00;117384;1184;22954;-51
2022/06/22 00:42:25;;;;;;;1.90;0.90;;;;;;;19.06;40.71;99520.13;117354;1182;23560;-55
2022/06/22 00:45:08;;;;;;;3.20;1.10;;;;;;;19.01;40.80;99518.99;117380;1184;21853;-52
2022/06/22 00:47:37;;;;;;;3.30;0.90;;;;;;;18.98;40.80;99517.23;117453;1185;23563;-51
2022/06/22 00:50:28;;;;;;;3.50;1.20;;;;;;;18.92;40.85;99514.20;117445;1183;22986;-52
2022/06/22 00:53:02;;;;;;;2.70;0.80;;;;;;;18.87;40.99;99507.02;117334;1186;23639;-54
2022/06/22 00:55:32;;;;;;;2.00;0.80;;;;;;;18.83;41.00;99507.45;117393;1186;21855;-54
2022/06/22 00:58:23;;;;;;;3.10;1.00;;;;;;;18.79;41.13;99505.02;117370;1184;23540;-54
2022/06/22 01:01:15;;;;;;;1.40;0.80;;;;;;;18.73;41.10;99501.98;117391;1186;23083;-51
2022/06/22 01:03:56;;;;;;;2.50;0.90;;;;;;;18.63;41.32;99496.36;117418;1183;21985;-54
2022/06/22 01:06:50;;;;;;;2.50;1.10;;;;;;;18.52;41.38;99499.19;117421;1186;23898;-51
2022/06/22 01:09:32;;;;;;;1.40;0.80;;;;;;;18.40;41.50;99495.42;117353;1181;21862;-54
2022/06/22 01:12:16;;;;;;;1.70;0.90;;;;;;;18.32;41.52;99493.38;117345;1185;22915;-50
2022/06/22 01:14:50;;;;;;;1.50;0.80;;;;;;;18.26;41.54;99492.33;117382;1185;23596;-51
2022/06/22 01:17:26;;;;;;;5.30;1.30;;;;;;;18.16;41.48;99489.18;117426;1186;23002;-54
2022/06/22 01:20:02;;;;;;;1.30;0.80;;;;;;;18.07;41.59;99483.31;117347;1183;23544;-54
2022/06/22 01:22:39;;;;;;;2.70;1.10;;;;;;;18.03;41.53;99481.04;117372;1182;22905;-54
2022/06/22 01:25:12;;;;;;;5.40;1.10;;;;;;;18.00;41.69;99483.35;117383;1182;23525;-51
2022/06/22 01:27:40;;;;;;;2.40;1.00;;;;;;;17.98;41.69;99483.77;117360;1183;21890;-53
2022/06/22 01:30:28;;;;;;;2.70;1.20;;;;;;;17.96;41.68;99485.66;117375;1182;22949;-53
2022/06/22 01:32:55;;;;;;;3.80;1.00;;;;;;;17.91;41.71;99491.43;117449;1186;23002;-52
2022/06/22 01:35:27;;;;;;;3.30;1.30;;;;;;;17.83;41.74;99489.94;117471;1183;22151;-51
2022/06/22 01:37:54;;;;;;;3.00;1.10;;;;;;;17.77;41.79;99492.40;117424;1182;21873;-54
2022/06/22 01:40:45;;;;;;;3.30;1.10;;;;;;;17.72;41.79;99485.42;117386;1183;23566;-54
2022/06/22 01:43:24;;;;;;;3.60;1.10;;;;;;;17.64;41.89;99485.50;117407;1185;21857;-51
2022/06/22 01:45:56;;;;;;;2.30;1.20;;;;;;;17.57;41.97;99500.46;117386;1183;23626;-54
2022/06/22 01:48:43;;;;;;;2.40;1.10;;;;;;;17.49;42.10;99515.73;117380;1185;23535;-55
2022/06/22 01:51:16;;;;;;;3.30;1.40;;;;;;;17.38;42.18;99522.20;117395;1183;24203;-54
2022/06/22 01:53:48;;;;;;;3.60;1.30;;;;;;;17.22;42.26;99528.95;117424;1184;21849;-54
2022/06/22 01:56:47;;;;;;;2.90;1.20;;;;;;;17.03;42.40;99534.51;117451;1183;23588;-54
2022/06/22 01:59:36;;;;;;;2.50;1.30;;;;;;;16.85;42.70;99537.34;117186;1186;22986;-52
2022/06/22 02:02:15;;;;;;;2.20;1.10;;;;;;;16.72;42.76;99541.75;117339;1183;23534;-52
2022/06/22 02:04:47;;;;;;;3.70;1.20;;;;;;;16.66;42.94;99539.04;117356;1186;22903;-51
2022/06/22 02:10:39;;;;;;;3.90;1.60;;;;;;;16.49;43.14;99538.48;117336;1184;21846;-51
2022/06/22 02:13:25;;;;;;;3.00;1.30;;;;;;;16.35;43.28;99535.98;117238;1185;23688;-54
2022/06/22 02:15:55;;;;;;;4.00;1.40;;;;;;;16.20;43.57;99540.27;117426;1186;22906;-51
2022/06/22 02:18:49;;;;;;;3.80;1.60;;;;;;;16.06;43.52;99541.81;117356;1183;21854;-52
2022/06/22 02:21:21;;;;;;;3.40;1.60;;;;;;;15.86;44.07;99536.73;117278;1185;21858;-52
2022/06/22 02:24:13;;;;;;;3.80;1.90;;;;;;;15.78;44.27;99536.05;117340;1186;22027;-51
2022/06/22 02:27:03;;;;;;;4.90;1.20;;;;;;;15.88;44.21;99536.98;117349;1185;24135;-53
2022/06/22 02:29:33;;;;;;;6.40;1.70;;;;;;;15.76;44.59;99540.38;117450;1179;21881;-52
2022/06/22 02:32:02;;;;;;;4.20;1.30;;;;;;;15.76;44.91;99538.40;117372;1182;23569;-54
2022/06/22 02:34:30;;;;;;;2.80;1.20;;;;;;;15.80;44.72;99538.78;117429;1181;22119;-53
2022/06/22 02:36:58;;;;;;;2.90;1.40;;;;;;;15.85;44.59;99541.02;117432;1183;21897;-51
2022/06/22 02:39:25;;;;;;;7.20;1.20;;;;;;;15.93;44.65;99545.44;117295;1186;22914;-50
2022/06/22 02:44:39;;;;;;;2.60;1.00;;;;;;;16.07;44.63;99548.51;117325;1185;23455;-53
2022/06/22 02:47:26;;;;;;;2.70;1.00;;;;;;;16.14;44.57;99540.55;117411;1185;21846;-51
2022/06/22 02:49:58;;;;;;;5.40;1.30;;;;;;;16.18;44.60;99537.69;117421;1183;21857;-51
2022/06/22 02:52:30;;;;;;;2.20;1.00;;;;;;;16.22;44.71;99541.41;117557;1182;24784;-51
2022/06/22 02:54:58;;;;;;;2.00;1.00;;;;;;;16.24;44.80;99536.88;117348;1182;22928;-50
2022/06/22 02:57:55;;;;;;;2.60;1.40;;;;;;;16.26;44.76;99530.23;117454;1183;22934;-50
2022/06/22 03:00:31;;;;;;;5.00;1.30;;;;;;;16.30;44.75;99523.16;117364;1180;23560;-51
2022/06/22 03:03:03;;;;;;;2.90;0.90;;;;;;;16.34;44.66;99511.78;117499;1184;21846;-51
2022/06/22 03:05:31;;;;;;;4.30;1.00;;;;;;;16.40;44.73;99507.56;117446;1184;23680;-51
2022/06/22 03:07:59;;;;;;;6.20;1.20;;;;;;;16.47;44.87;99500.70;117396;1183;22956;-50
2022/06/22 03:10:38;;;;;;;1.90;1.30;;;;;;;16.52;44.80;99496.38;117463;1183;23660;-51
2022/06/22 03:13:05;;;;;;;1.90;1.00;;;;;;;16.59;44.85;99491.08;117390;1182;23004;-54
2022/06/22 03:15:34;;;;;;;1.90;0.90;;;;;;;16.65;44.92;99494.98;117429;1182;24157;-50
2022/06/22 03:18:02;;;;;;;4.70;1.20;;;;;;;16.72;44.85;99492.33;117421;1183;22171;-51
2022/06/22 03:20:32;;;;;;;5.90;1.10;;;;;;;16.81;44.82;99490.45;117438;1182;23538;-54
2022/06/22 03:23:13;;;;;;;2.40;0.90;;;;;;;16.87;44.91;99486.58;117405;1183;21957;-54
2022/06/22 03:25:44;;;;;;;2.20;0.90;;;;;;;16.96;44.80;99487.92;117424;1182;23541;-53
2022/06/22 03:28:20;;;;;;;1.90;0.90;;;;;;;17.05;44.84;99488.35;117398;1185;22043;-54
2022/06/22 03:30:55;;;;;;;2.10;0.80;;;;;;;17.13;44.83;99487.36;117344;1184;21844;-51
2022/06/22 03:33:35;;;;;;;1.90;0.80;;;;;;;17.22;44.80;99489.75;117375;1182;24267;-54
2022/06/22 03:36:06;;;;;;;3.40;1.00;;;;;;;17.33;44.88;99493.60;117350;1185;21909;-55
2022/06/22 03:38:37;;;;;;;3.40;1.20;;;;;;;17.46;44.71;99492.71;117369;1182;22883;-54
2022/06/22 03:41:07;;;;;;;3.40;1.10;;;;;;;17.58;44.47;99489.05;117385;1184;21856;-52
2022/06/22 03:43:54;;;;;;;4.30;1.00;;;;;;;17.69;44.51;99485.59;117410;1182;21847;-51
2022/06/22 03:46:29;;;;;;;5.20;0.80;;;;;;;17.84;44.42;99486.16;117348;1185;21850;-54
2022/06/22 03:49:01;;;;;;;4.30;1.00;;;;;;;17.98;44.24;99486.98;117378;1186;22918;-53
2022/06/22 03:51:37;;;;;;;3.50;1.30;;;;;;;18.13;43.99;99484.55;117634;1185;22915;-54
2022/06/22 03:54:15;;;;;;;4.30;1.30;;;;;;;18.27;43.83;99484.83;117349;1185;23538;-51
2022/06/22 03:56:44;;;;;;;1.10;0.60;;;;;;;18.41;43.64;99475.63;117374;1183;22985;-51
2022/06/22 03:59:11;;;;;;;2.00;0.90;;;;;;;18.55;43.77;99475.70;117461;1186;21853;-53
2022/06/22 04:01:38;;;;;;;2.20;0.70;;;;;;;18.71;43.67;99481.16;117357;1184;21846;-54
2022/06/22 04:04:05;;;;;;;2.90;0.70;;;;;;;18.84;43.29;99484.79;117095;1184;22424;-52
2022/06/22 04:06:32;;;;;;;2.20;0.70;;;;;;;18.96;42.79;99482.83;117358;1184;23549;-54
2022/06/22 04:09:00;;;;;;;3.50;0.80;;;;;;;19.09;42.66;99484.20;117418;1185;23537;-52
2022/06/22 04:12:02;;;;;;;1.60;0.60;;;;;;;19.37;42.22;99484.40;117328;1182;22899;-53
2022/06/22 04:14:29;;;;;;;2.70;0.90;;;;;;;19.53;42.13;99484.83;117404;1186;23574;-51
2022/06/22 04:17:02;;;;;;;13.80;1.30;;;;;;;19.65;41.89;99484.61;117364;1185;22967;-54
2022/06/22 04:19:38;;;;;;;4.80;0.80;;;;;;;19.77;41.62;99488.45;117372;1184;22905;-55
2022/06/22 04:22:22;;;;;;;3.40;0.90;;;;;;;19.87;41.55;99485.50;117440;1184;21846;-56
2022/06/22 04:24:58;;;;;;;3.40;0.90;;;;;;;20.00;41.42;99488.67;117424;1185;22070;-55
2022/06/22 04:27:30;;;;;;;5.30;1.00;;;;;;;20.11;41.22;99493.60;117418;1182;23002;-53
2022/06/22 04:30:12;;;;;;;6.60;1.40;;;;;;;20.20;40.73;99488.20;117439;1183;22914;-55
2022/06/22 04:32:42;;;;;;;7.30;1.20;;;;;;;20.30;40.86;99485.23;117404;1179;22956;-53
2022/06/22 04:35:27;;;;;;;2.70;0.80;;;;;;;20.41;40.57;99483.40;117411;1182;23581;-53
2022/06/22 04:37:56;;;;;;;4.60;1.00;;;;;;;20.48;40.26;99482.75;117431;1183;22932;-55
2022/06/22 04:40:50;;;;;;;3.10;1.20;;;;;;;20.55;40.19;99474.12;117421;1182;22787;-53
2022/06/22 04:43:17;;;;;;;5.40;0.80;;;;;;;20.65;40.26;99471.63;117135;1180;22911;-54
2022/06/22 04:45:45;;;;;;;3.80;1.10;;;;;;;20.73;39.97;99472.14;117330;1182;23573;-54
2022/06/22 04:48:20;;;;;;;4.10;1.00;;;;;;;20.82;39.62;99470.16;117388;1184;23436;-54
2022/06/22 04:50:48;;;;;;;1.80;0.70;;;;;;;20.91;39.60;99467.39;117282;1185;24290;-54
2022/06/22 04:53:19;;;;;;;4.40;1.10;;;;;;;20.97;39.46;99469.48;117288;1185;21960;-52
2022/06/22 04:55:46;;;;;;;1.60;0.70;;;;;;;21.00;39.46;99466.41;117291;1185;23618;-55
2022/06/22 04:58:27;;;;;;;1.70;0.80;;;;;;;21.22;39.28;99466.85;117365;1182;23602;-53
2022/06/22 05:00:54;;;;;;;4.40;0.90;;;;;;;21.22;39.01;99464.16;117455;1184;22838;-53
2022/06/22 05:03:21;;;;;;;6.20;1.00;;;;;;;21.21;38.52;99465.08;117158;1184;22989;-53
2022/06/22 05:05:48;;;;;;;5.30;0.90;;;;;;;21.27;38.44;99464.36;117390;1182;23691;-54
2022/06/22 05:08:30;;;;;;;3.40;0.80;;;;;;;21.33;38.65;99458.55;117373;1182;23563;-53
2022/06/22 05:11:00;;;;;;;4.10;1.00;;;;;;;21.48;38.47;99462.63;117330;1183;23619;-55
2022/06/22 05:13:37;;;;;;;7.80;1.50;;;;;;;21.64;38.45;99464.55;117404;1182;23569;-53
2022/06/22 05:16:05;;;;;;;11.10;1.50;;;;;;;21.76;37.92;99462.41;117393;1183;22914;-55
2022/06/22 05:18:36;;;;;;;18.20;4.30;;;;;;;21.89;37.61;99452.35;117425;1181;23629;-55
2022/06/22 05:21:41;;;;;;;10.00;1.30;;;;;;;22.04;37.13;99449.13;117421;1185;22913;-55
2022/06/22 05:24:17;;;;;;;4.50;0.80;;;;;;;22.19;36.83;99449.45;117384;1179;23639;-53
2022/06/22 05:26:44;;;;;;;4.20;1.20;;;;;;;22.29;36.93;99444.05;117391;1183;21847;-53
2022/06/22 05:29:22;;;;;;;3.60;1.30;;;;;;;22.43;37.16;99441.57;117320;1183;23053;-53
2022/06/22 05:31:56;;;;;;;9.40;1.60;;;;;;;22.58;36.17;99446.52;117356;1182;22925;-53
2022/06/22 05:34:26;;;;;;;5.60;1.20;;;;;;;22.68;36.08;99446.65;117359;1185;21938;-54
2022/06/22 05:37:05;;;;;;;4.90;1.10;;;;;;;22.81;36.71;99440.96;117378;1186;23434;-55
2022/06/22 05:39:33;;;;;;;5.10;0.90;;;;;;;22.96;36.15;99439.96;117328;1182;21861;-54
2022/06/22 05:42:01;;;;;;;7.80;1.70;;;;;;;23.09;36.02;99436.50;117380;1182;22983;-54
2022/06/22 05:44:28;;;;;;;5.80;0.70;;;;;;;23.22;35.34;99433.30;117372;1183;22081;-55
2022/06/22 05:46:57;;;;;;;3.50;0.80;;;;;;;23.27;35.36;99430.58;117454;1179;21853;-55
2022/06/22 05:49:40;;;;;;;5.50;1.00;;;;;;;23.26;35.11;99425.52;117467;1182;23449;-53
2022/06/22 05:52:16;;;;;;;3.60;0.80;;;;;;;23.23;35.82;99419.61;117460;1180;22982;-55
2022/06/22 05:54:50;;;;;;;7.20;0.60;;;;;;;23.25;34.89;99418.08;117428;1182;21907;-55
2022/06/22 05:57:22;;;;;;;14.00;1.70;;;;;;;23.33;34.43;99415.26;117412;1186;21902;-54
2022/06/22 05:59:54;;;;;;;14.50;1.40;;;;;;;23.48;34.28;99418.50;117431;1185;23551;-54
2022/06/22 06:02:59;;;;;;;3.30;0.80;;;;;;;23.64;34.28;99421.02;117456;1178;21884;-53
2022/06/22 06:05:33;;;;;;;6.30;1.00;;;;;;;23.56;33.94;99410.15;117179;1183;21852;-54
2022/06/22 06:08:02;;;;;;;4.40;0.90;;;;;;;23.58;34.53;99413.98;117412;1183;23537;-54
2022/06/22 06:10:32;;;;;;;2.80;0.70;;;;;;;23.65;34.35;99411.59;117433;1185;23525;-56
2022/06/22 06:13:09;;;;;;;3.60;0.70;;;;;;;23.71;34.40;99411.30;117349;1179;24203;-54
2022/06/22 06:15:38;;;;;;;4.70;0.60;;;;;;;23.82;34.24;99413.41;117343;1185;21855;-53
2022/06/22 06:18:06;;;;;;;5.80;0.70;;;;;;;23.88;34.10;99412.55;117466;1182;22044;-55
2022/06/22 06:20:40;;;;;;;3.90;0.90;;;;;;;23.97;34.25;99412.57;117368;1185;21844;-55
2022/06/22 06:23:18;;;;;;;3.70;0.70;;;;;;;24.08;33.90;99413.48;117495;1186;21925;-54
2022/06/22 06:28:42;;;;;;;3.80;1.00;;;;;;;24.22;33.67;99416.03;117372;1182;23573;-55
2022/06/22 06:31:22;;;;;;;3.30;0.70;;;;;;;24.32;33.02;99410.02;117633;1182;22983;-53
2022/06/22 06:33:51;;;;;;;2.40;0.70;;;;;;;24.41;33.17;99409.48;117342;1185;21836;-56
2022/06/22 06:36:37;;;;;;;3.60;0.70;;;;;;;24.53;33.16;99406.77;117445;1185;23519;-55
2022/06/22 06:39:06;;;;;;;9.20;1.00;;;;;;;24.56;32.98;99409.24;117320;1186;21849;-55
2022/06/22 06:41:38;;;;;;;12.10;1.40;;;;;;;24.58;32.95;99410.12;117342;1185;23193;-54
2022/06/22 06:44:25;;;;;;;6.10;0.80;;;;;;;24.54;32.85;99409.91;117387;1186;21862;-56
2022/06/22 06:46:56;;;;;;;4.20;0.80;;;;;;;24.55;32.83;99412.16;117376;1185;21882;-55
2022/06/22 06:49:46;;;;;;;1.60;0.50;;;;;;;24.63;32.98;99411.70;117348;1181;22294;-55
2022/06/22 06:52:22;;;;;;;;;;;;;;;24.77;33.21;99406.68;117385;1186;22511;-54
2022/06/22 06:55:04;;;;;;;3.60;0.60;;;;;;;24.93;32.82;99405.66;117423;1185;22852;-55
2022/06/22 06:57:31;;;;;;;3.40;0.90;;;;;;;25.01;32.60;99402.88;117369;1185;21878;-55
2022/06/22 07:00:01;;;;;;;4.40;0.70;;;;;;;25.03;32.37;99405.35;117406;1182;22912;-56
2022/06/22 07:02:36;;;;;;;3.30;0.70;;;;;;;25.07;32.20;99403.90;117416;1186;22439;-56
2022/06/22 07:05:06;;;;;;;6.50;0.80;;;;;;;25.11;32.48;99397.15;117472;1181;22914;-55
2022/06/22 07:07:40;;;;;;;3.70;0.70;;;;;;;25.14;32.36;99404.64;117165;1185;22965;-56
2022/06/22 07:10:21;;;;;;;5.60;1.20;;;;;;;25.20;32.37;99401.18;117240;1186;21928;-55
2022/06/22 07:12:56;;;;;;;2.80;0.60;;;;;;;25.27;32.29;99400.70;117347;1185;21850;-55
2022/06/22 07:15:28;;;;;;;3.30;0.70;;;;;;;25.36;32.42;99403.66;117370;1185;21857;-55
2022/06/22 07:17:56;;;;;;;2.20;0.70;;;;;;;25.40;32.57;99396.67;117369;1182;23634;-55
2022/06/22 07:20:33;;;;;;;4.40;0.80;;;;;;;25.54;32.08;99395.78;117375;1180;22386;-54
2022/06/22 07:23:05;;;;;;;2.90;0.80;;;;;;;25.63;31.62;99391.38;117209;1185;21929;-54
2022/06/22 07:25:44;;;;;;;4.10;0.70;;;;;;;25.65;31.38;99390.30;117425;1185;23567;-54
2022/06/22 07:28:37;;;;;;;2.90;0.70;;;;;;;25.74;31.48;99397.59;117427;1184;23467;-55
2022/06/22 07:31:10;;;;;;;8.60;1.30;;;;;;;25.84;31.12;99392.19;117347;1186;21849;-54
2022/06/22 07:33:48;;;;;;;16.10;1.20;;;;;;;25.99;30.97;99384.91;117101;1184;22808;-54
2022/06/22 07:36:37;;;;;;;6.50;0.90;;;;;;;26.05;31.01;99388.83;117385;1179;23616;-55
2022/06/22 07:39:18;;;;;;;5.30;0.70;;;;;;;26.10;31.16;99402.90;117396;1183;22176;-54
2022/06/22 07:41:51;;;;;;;4.80;0.90;;;;;;;26.01;30.70;99400.35;117297;1185;21854;-54
2022/06/22 07:44:22;;;;;;;4.60;0.80;;;;;;;25.85;30.81;99396.98;118250;1184;22243;-55
2022/06/22 07:47:14;;;;;;;5.20;0.80;;;;;;;25.72;30.89;99404.64;118295;1185;21850;-55
2022/06/22 07:49:45;;;;;;;4.40;0.70;;;;;;;25.47;31.02;99408.23;117460;1185;22626;-55
2022/06/22 07:52:16;;;;;;;10.10;1.30;;;;;;;25.28;31.35;99402.93;117432;1184;22915;-55
2022/06/22 07:54:45;;;;;;;;;;;;;;;25.06;31.23;99401.48;117484;1186;21871;-55
2022/06/22 07:57:15;;;;;;;5.00;0.80;;;;;;;24.86;31.44;99402.73;117403;1182;24155;-55
2022/06/22 07:59:50;;;;;;;1.70;0.60;;;;;;;24.79;31.99;99397.72;117397;1185;22623;-55
2022/06/22 08:02:23;;;;;;;4.90;1.40;;;;;;;24.72;32.02;99398.04;117377;1185;22932;-54
2022/06/22 08:05:00;;;;;;;3.40;0.60;;;;;;;24.68;32.34;99406.08;117295;1185;22905;-55
2022/06/22 08:08:28;;;;;;;2.20;0.50;;;;;;;24.59;32.40;99403.38;117354;1184;21846;-55
2022/06/22 08:11:01;;;;;;;7.50;1.30;;;;;;;24.61;32.23;99406.10;117176;1186;23006;-55
2022/06/22 08:13:32;;;;;;;6.00;0.70;;;;;;;24.58;32.35;99407.98;117285;1182;21947;-54
2022/06/22 08:16:02;;;;;;;4.30;0.60;;;;;;;24.60;32.37;99410.85;119344;1182;22191;-56
2022/06/22 08:18:29;;;;;;;3.90;1.00;;;;;;;24.72;32.14;99411.45;118286;1184;21849;-54
2022/06/22 08:20:57;;;;;;;2.50;0.80;;;;;;;24.72;31.88;99412.52;117459;1186;23542;-56
2022/06/22 08:23:26;;;;;;;2.90;0.70;;;;;;;24.64;31.99;99417.50;117411;1184;22912;-55
2022/06/22 08:26:00;;;;;;;1.60;0.40;;;;;;;24.51;32.28;99425.40;117394;1183;22985;-54
2022/06/22 08:28:29;;;;;;;5.40;0.60;;;;;;;24.41;32.25;99429.11;117407;1180;21857;-55
2022/06/22 08:30:57;;;;;;;4.00;0.70;;;;;;;24.36;32.22;99425.08;117405;1186;23541;-55
2022/06/22 08:33:37;;;;;;;4.00;0.70;;;;;;;24.27;32.22;99427.48;117366;1182;23638;-56
2022/06/22 08:36:18;;;;;;;3.50;0.50;;;;;;;24.19;32.31;99432.64;117420;1186;22978;-55
2022/06/22 08:38:53;;;;;;;4.60;0.70;;;;;;;24.09;32.37;99428.60;117327;1182;23621;-55
2022/06/22 08:41:41;;;;;;;3.80;0.50;;;;;;;23.92;32.64;99424.95;117404;1182;21962;-55
2022/06/22 08:44:27;;;;;;;6.10;0.70;;;;;;;23.88;32.59;99418.80;117415;1180;21846;-56
2022/06/22 08:47:07;;;;;;;3.60;0.60;;;;;;;23.94;32.56;99407.95;117343;1184;21842;-55
2022/06/22 08:49:47;;;;;;;3.10;0.50;;;;;;;24.08;32.57;99406.50;117263;1182;23640;-56
2022/06/22 08:52:37;;;;;;;2.80;0.80;;;;;;;24.23;32.47;99402.73;117362;1182;23402;-55
2022/06/22 08:55:44;;;;;;;3.00;0.60;;;;;;;24.28;32.23;99400.49;117313;1184;22614;-54
2022/06/22 08:58:32;;;;;;;4.30;0.70;;;;;;;24.35;32.24;99397.34;117350;1185;21847;-55
2022/06/22 09:01:21;;;;;;;3.40;0.70;;;;;;;24.43;32.03;99403.17;117333;1182;22646;-55
2022/06/22 09:04:07;;;;;;;3.20;0.60;;;;;;;24.61;32.14;99401.63;117384;1184;21866;-55
2022/06/22 09:06:46;;;;;;;4.00;0.80;;;;;;;24.69;32.16;99402.38;117478;1186;21849;-55
2022/06/22 09:09:18;;;;;;;6.20;0.70;;;;;;;24.63;31.94;99393.40;117363;1183;21850;-56
2022/06/22 09:11:58;;;;;;;10.20;1.30;;;;;;;24.55;32.04;99387.98;117412;1182;21901;-56
2022/06/22 09:14:33;;;;;;;2.70;0.70;;;;;;;24.45;31.75;99397.45;117394;1182;22175;-56
2022/06/22 09:17:03;;;;;;;6.90;1.00;;;;;;;24.35;31.89;99396.34;117474;1182;22672;-55
2022/06/22 09:19:30;;;;;;;5.50;0.60;;;;;;;24.27;32.12;99396.59;117357;1182;22986;-55
2022/06/22 09:22:17;;;;;;;3.50;0.70;;;;;;;24.31;32.05;99388.35;117412;1182;22932;-55
2022/06/22 09:24:51;;;;;;;15.10;0.90;;;;;;;24.42;32.24;99386.55;117418;1185;23439;-53
2022/06/22 09:27:27;;;;;;;8.70;0.80;;;;;;;24.62;32.50;99379.64;117473;1185;21887;-53
2022/06/22 09:30:05;;;;;;;18.00;2.50;;;;;;;24.93;32.56;99383.81;117520;1182;21849;-54
2022/06/22 09:32:35;;;;;;;3.60;0.60;;;;;;;25.23;32.45;99380.63;117375;1181;23560;-55
2022/06/22 09:35:21;;;;;;;17.60;1.60;;;;;;;25.47;32.08;99379.02;117462;1185;21890;-55
2022/06/22 09:38:06;;;;;;;3.60;0.80;;;;;;;25.71;32.13;99379.73;117421;1182;22787;-54
2022/06/22 09:40:41;;;;;;;4.90;0.70;;;;;;;25.81;31.84;99375.23;117327;1185;22932;-55
2022/06/22 09:43:26;;;;;;;8.00;1.10;;;;;;;25.80;31.57;99376.92;117339;1182;22799;-54
2022/06/22 09:46:15;;;;;;;4.60;0.90;;;;;;;25.77;31.64;99386.59;117357;1184;23685;-54
2022/06/22 09:49:00;;;;;;;3.90;0.70;;;;;;;25.69;31.35;99389.08;117339;1186;21843;-55
2022/06/22 09:51:56;;;;;;;6.00;1.30;;;;;;;25.60;31.67;99394.19;117290;1185;22041;-56
2022/06/22 09:57:50;;;;;;;5.10;0.60;;;;;;;25.41;31.77;99392.29;117303;1181;23538;-56
2022/06/22 10:00:22;;;;;;;4.80;0.70;;;;;;;25.33;31.97;99393.86;117386;1182;22791;-56
2022/06/22 10:02:49;;;;;;;;;;;;;;;25.33;32.11;99397.14;117415;1182;23531;-56
2022/06/22 10:05:19;;;;;;;2.80;0.70;;;;;;;25.36;32.18;99398.86;117327;1182;21892;-55
2022/06/22 10:07:56;;;;;;;3.80;0.80;;;;;;;25.34;32.18;99401.01;117559;1182;21901;-55
2022/06/22 10:10:32;;;;;;;5.00;0.70;;;;;;;25.21;32.34;99400.17;117377;1186;21910;-55
2022/06/22 10:13:18;;;;;;;9.80;0.90;;;;;;;25.18;32.48;99403.84;117343;1185;22623;-54
2022/06/22 10:16:25;;;;;;;12.50;1.30;;;;;;;25.16;32.56;99403.53;117384;1182;22999;-55
2022/06/22 10:19:11;;;;;;;5.60;1.00;;;;;;;25.07;32.39;99403.92;117449;1185;24171;-56
2022/06/22 10:22:26;;;;;;;1.30;0.40;;;;;;;24.95;32.60;99416.45;117411;1183;23563;-54
2022/06/22 10:25:05;;;;;;;7.00;0.70;;;;;;;24.80;32.72;99422.46;117417;1185;22957;-56
2022/06/22 10:27:54;;;;;;;3.20;0.50;;;;;;;24.65;32.87;99427.26;117393;1182;24185;-54
2022/06/22 10:30:40;;;;;;;3.10;0.70;;;;;;;24.55;33.23;99434.77;117429;1182;22154;-54
2022/06/22 10:33:27;;;;;;;4.50;0.50;;;;;;;24.53;33.34;99436.18;117412;1185;23445;-54
2022/06/22 10:35:59;;;;;;;4.10;0.90;;;;;;;24.50;33.44;99444.68;117445;1181;22903;-55
2022/06/22 10:38:38;;;;;;;4.30;0.90;;;;;;;24.43;33.38;99448.46;117468;1183;23541;-54
2022/06/22 10:47:46;;;;;;;8.70;1.20;;;;;;;23.91;33.91;99456.88;117379;1186;23676;-56
2022/06/22 10:50:34;;;;;;;4.50;1.10;;;;;;;23.85;34.05;99455.63;116872;1185;22922;-57
2022/06/22 10:53:29;;;;;;;10.20;0.90;;;;;;;23.79;34.06;99459.94;117412;1186;23437;-55
2022/06/22 10:56:09;;;;;;;4.40;1.00;;;;;;;23.77;34.17;99458.05;117445;1182;23527;-53
2022/06/22 10:59:02;;;;;;;3.60;0.70;;;;;;;23.80;34.32;99453.89;117404;1188;21852;-53
2022/06/22 11:01:51;;;;;;;15.70;1.70;;;;;;;23.85;34.47;99458.48;117341;1182;23540;-55
2022/06/22 11:04:37;;;;;;;5.20;1.10;;;;;;;23.88;34.40;99455.19;117374;1185;21852;-54
2022/06/22 11:07:25;;;;;;;10.90;1.00;;;;;;;23.94;34.33;99450.40;117394;1182;23557;-54
2022/06/22 11:09:58;;;;;;;11.90;1.60;;;;;;;23.99;34.39;99447.67;117377;1185;21849;-55
2022/06/22 11:12:54;;;;;;;9.70;1.00;;;;;;;23.99;34.34;99449.28;117430;1186;21849;-55
2022/06/22 11:15:34;;;;;;;2.50;1.00;;;;;;;23.96;34.31;99445.61;117335;1180;22278;-54
2022/06/22 11:18:23;;;;;;;7.70;0.90;;;;;;;23.96;34.41;99447.59;117380;1183;21914;-54
2022/06/22 11:21:12;;;;;;;2.70;0.80;;;;;;;23.97;34.64;99451.06;117460;1183;23573;-54
2022/06/22 11:23:48;;;;;;;4.50;1.00;;;;;;;24.05;34.62;99449.35;117433;1185;21846;-54
2022/06/22 11:32:46;;;;;;;6.90;1.00;;;;;;;24.32;34.45;99437.21;117420;1185;22937;-53
2022/06/22 11:35:41;;;;;;;3.70;1.10;;;;;;;24.43;34.10;99444.79;117394;1182;22932;-55
2022/06/22 11:38:35;;;;;;;13.00;1.90;;;;;;;24.48;34.10;99442.86;117351;1182;23538;-55
2022/06/22 11:41:30;;;;;;;9.00;1.60;;;;;;;24.48;34.00;99446.08;117303;1185;22911;-54
2022/06/22 11:44:15;;;;;;;7.00;0.80;;;;;;;24.48;34.14;99446.80;117475;1186;23462;-54
2022/06/22 11:46:49;;;;;;;1.90;0.60;;;;;;;24.41;34.17;99441.73;117382;1179;23208;-54
2022/06/22 11:49:45;;;;;;;4.30;0.70;;;;;;;24.35;34.23;99438.59;117370;1182;22825;-57
2022/06/22 11:52:46;;;;;;;12.20;1.00;;;;;;;24.28;34.50;99428.83;117235;1184;24145;-55
2022/06/22 11:55:18;;;;;;;8.90;1.10;;;;;;;24.34;34.69;99431.31;117558;1185;21850;-55
2022/06/22 11:58:02;;;;;;;3.60;0.60;;;;;;;24.45;34.36;99423.61;117609;1185;22475;-55
2022/06/22 12:00:51;;;;;;;10.10;1.00;;;;;;;24.59;34.45;99419.52;117380;1185;21859;-55
2022/06/22 12:03:57;;;;;;;6.10;0.80;;;;;;;24.82;34.39;99413.99;117429;1181;23551;-56
2022/06/22 12:06:27;;;;;;;10.10;1.30;;;;;;;25.10;34.15;99404.38;117450;1185;21888;-54
2022/06/22 12:09:15;;;;;;;4.20;0.90;;;;;;;25.25;33.86;99398.23;117435;1183;23563;-53
2022/06/22 12:12:05;;;;;;;2.70;0.50;;;;;;;25.24;33.74;99403.69;117321;1182;22932;-52
2022/06/22 12:18:11;;;;;;;9.60;1.20;;;;;;;25.12;33.67;99403.35;117298;1185;21974;-54
2022/06/22 12:20:51;;;;;;;17.50;1.60;;;;;;;24.93;33.95;99421.84;117340;1182;24270;-56
2022/06/22 12:23:22;;;;;;;11.80;1.40;;;;;;;24.76;34.50;99431.71;117358;1185;23458;-54
2022/06/22 12:25:59;;;;;;;;;;;;;;;24.49;34.65;99445.64;117268;1182;22622;-56
2022/06/22 12:28:41;;;;;;;4.00;0.70;;;;;;;24.17;35.22;99448.70;117355;1186;22616;-53
2022/06/22 12:31:21;;;;;;;4.20;1.00;;;;;;;23.83;36.25;99450.96;117356;1185;22796;-54
2022/06/22 12:33:56;;;;;;;5.20;1.00;;;;;;;23.50;36.91;99442.92;117313;1185;21851;-54
2022/06/22 12:36:50;;;;;;;6.10;1.10;;;;;;;23.32;37.41;99437.87;117376;1185;21953;-56
2022/06/22 12:39:25;;;;;;;3.90;1.00;;;;;;;23.37;37.43;99431.22;117360;1186;23461;-56
2022/06/22 12:41:51;;;;;;;2.30;0.70;;;;;;;23.51;37.37;99431.02;117445;1182;23682;-54